Time;durP1;ratioP1;P1;durP2;ratioP2;P2;SDS_P1;SDS_P2;PMS_P1;PMS_P2;Temp;Humidity;BMP_temperature;BMP_pressure;BME280_temperature;BME280_humidity;BME280_pressure;Samples;Min_cycle;Max_cycle;Signal;HPM_P1;HPM_P2
2023/08/20 00:03:54;;;;;;;11.35;9.63;;;;;;;;;;10364936;28;20045;-80
2023/08/20 00:08:55;;;;;;;9.75;8.80;;;;;;;;;;10394735;28;20030;-83
2023/08/20 00:13:55;;;;;;;10.50;8.50;;;;;;;;;;10379128;28;20045;-79
2023/08/20 00:18:57;;;;;;;9.80;8.80;;;;;;;;;;10379992;28;20045;-85
2023/08/20 00:24:00;;;;;;;12.60;8.25;;;;;;;;;;10401634;28;20356;-83
2023/08/20 00:29:02;;;;;;;10.75;8.13;;;;;;;;;;10377469;28;20399;-85
2023/08/20 00:34:06;;;;;;;9.93;8.02;;;;;;;;;;10410782;28;20196;-83
2023/08/20 00:39:06;;;;;;;8.52;7.63;;;;;;;;;;10399958;28;20160;-83
2023/08/20 00:44:06;;;;;;;8.07;7.28;;;;;;;;;;10400862;28;20085;-87
2023/08/20 00:49:08;;;;;;;9.17;8.13;;;;;;;;;;10393816;28;20446;-84
2023/08/20 00:54:10;;;;;;;10.65;8.25;;;;;;;;;;10397351;28;20342;-85
2023/08/20 00:59:11;;;;;;;12.07;8.63;;;;;;;;;;10394944;28;20056;-85
2023/08/20 01:04:11;;;;;;;10.07;7.70;;;;;;;;;;10374567;28;20589;-82
2023/08/20 01:09:12;;;;;;;9.88;7.93;;;;;;;;;;10397698;28;20037;-84
2023/08/20 01:14:15;;;;;;;10.57;7.95;;;;;;;;;;10383119;28;20048;-83
2023/08/20 01:19:17;;;;;;;9.45;8.10;;;;;;;;;;10378135;28;20050;-86
2023/08/20 01:24:27;;;;;;;10.65;8.23;;;;;;;;;;10410743;28;20041;-85
2023/08/20 01:29:28;;;;;;;12.13;8.43;;;;;;;;;;10401496;28;20412;-83
2023/08/20 01:34:29;;;;;;;11.40;8.80;;;;;;;;;;10404088;28;20033;-80
2023/08/20 01:39:29;;;;;;;11.83;8.63;;;;;;;;;;10393536;28;20049;-79
2023/08/20 01:44:29;;;;;;;9.35;8.30;;;;;;;;;;10398598;28;20085;-80
2023/08/20 01:49:31;;;;;;;10.10;9.00;;;;;;;;;;10391962;28;20106;-83
2023/08/20 01:54:33;;;;;;;10.38;9.02;;;;;;;;;;10405896;28;20822;-85
2023/08/20 01:59:35;;;;;;;11.13;8.73;;;;;;;;;;10398103;28;21122;-82
2023/08/20 02:04:37;;;;;;;9.30;8.32;;;;;;;;;;10371290;28;20045;-82
2023/08/20 02:09:38;;;;;;;10.90;8.38;;;;;;;;;;10379239;28;20778;-82
2023/08/20 02:14:39;;;;;;;11.48;9.55;;;;;;;;;;10396964;28;20099;-82
2023/08/20 02:19:40;;;;;;;12.35;9.27;;;;;;;;;;10394734;28;20053;-83
2023/08/20 02:24:40;;;;;;;10.40;8.63;;;;;;;;;;10387239;28;20030;-81
2023/08/20 02:29:45;;;;;;;12.30;8.73;;;;;;;;;;10394575;28;20029;-83
2023/08/20 02:34:53;;;;;;;10.48;9.38;;;;;;;;;;10375975;28;20042;-82
2023/08/20 02:39:53;;;;;;;9.93;8.32;;;;;;;;;;10372428;28;20049;-81
2023/08/20 02:44:54;;;;;;;13.70;9.77;;;;;;;;;;10366775;28;20042;-83
2023/08/20 02:49:54;;;;;;;10.97;8.60;;;;;;;;;;10392782;28;20041;-84
2023/08/20 02:54:55;;;;;;;11.07;9.45;;;;;;;;;;10385104;28;20050;-80
2023/08/20 02:59:55;;;;;;;10.90;9.73;;;;;;;;;;10376567;28;20053;-82
2023/08/20 03:04:56;;;;;;;12.20;9.47;;;;;;;;;;10369123;28;21301;-82
2023/08/20 03:09:56;;;;;;;11.40;10.30;;;;;;;;;;10386026;28;20048;-82
2023/08/20 03:14:58;;;;;;;11.87;8.83;;;;;;;;;;10387228;28;20030;-82
2023/08/20 03:19:59;;;;;;;11.47;9.37;;;;;;;;;;10394242;28;20326;-82
2023/08/20 03:25:00;;;;;;;11.30;9.40;;;;;;;;;;10370145;28;20304;-81
2023/08/20 03:30:01;;;;;;;11.60;9.63;;;;;;;;;;10374870;28;20701;-80
2023/08/20 03:35:01;;;;;;;13.77;9.90;;;;;;;;;;10375756;28;20069;-82
2023/08/20 03:40:04;;;;;;;14.02;9.82;;;;;;;;;;10385012;28;20042;-82
2023/08/20 03:45:05;;;;;;;10.98;9.65;;;;;;;;;;10391917;28;20092;-81
2023/08/20 03:50:06;;;;;;;11.38;9.73;;;;;;;;;;10370211;28;20045;-84
2023/08/20 03:55:06;;;;;;;10.48;9.35;;;;;;;;;;10389818;28;20076;-83
2023/08/20 04:00:10;;;;;;;11.55;9.93;;;;;;;;;;10380401;28;20123;-84
2023/08/20 04:05:16;;;;;;;13.27;9.93;;;;;;;;;;10393994;28;20048;-84
2023/08/20 04:10:16;;;;;;;9.90;8.90;;;;;;;;;;10404099;28;20037;-86
2023/08/20 04:15:17;;;;;;;12.77;9.83;;;;;;;;;;10402979;28;20108;-80
2023/08/20 04:20:17;;;;;;;11.77;10.50;;;;;;;;;;10394503;28;20792;-81
2023/08/20 04:25:19;;;;;;;11.60;10.50;;;;;;;;;;10397330;28;20062;-81
2023/08/20 04:30:19;;;;;;;11.05;9.90;;;;;;;;;;10382766;28;20041;-82
2023/08/20 04:35:21;;;;;;;10.75;9.40;;;;;;;;;;10400321;28;20041;-80
2023/08/20 04:40:22;;;;;;;14.02;10.02;;;;;;;;;;10361147;28;20049;-83
2023/08/20 04:45:22;;;;;;;12.18;9.60;;;;;;;;;;10388193;28;20049;-82
2023/08/20 04:50:23;;;;;;;11.98;9.52;;;;;;;;;;10377937;28;20048;-83
2023/08/20 04:55:24;;;;;;;10.38;9.30;;;;;;;;;;10372684;28;20050;-82
2023/08/20 05:00:24;;;;;;;10.68;9.52;;;;;;;;;;10375794;28;20499;-80
2023/08/20 05:05:39;;;;;;;10.57;9.48;;;;;;;;;;10378035;28;20131;-82
2023/08/20 05:10:40;;;;;;;11.20;10.10;;;;;;;;;;10379137;28;20038;-80
2023/08/20 05:15:40;;;;;;;11.37;9.80;;;;;;;;;;10401450;28;20045;-83
2023/08/20 05:20:41;;;;;;;10.37;9.30;;;;;;;;;;10396873;28;20076;-82
2023/08/20 05:25:41;;;;;;;13.45;9.40;;;;;;;;;;10378982;28;20040;-81
2023/08/20 05:30:42;;;;;;;11.13;9.60;;;;;;;;;;10414785;28;20060;-80
2023/08/20 05:35:43;;;;;;;10.32;9.23;;;;;;;;;;10393912;28;20041;-83
2023/08/20 05:40:44;;;;;;;10.48;9.32;;;;;;;;;;10384485;28;20720;-82
2023/08/20 05:45:44;;;;;;;12.67;10.20;;;;;;;;;;10369397;28;20109;-80
2023/08/20 05:50:50;;;;;;;10.73;9.63;;;;;;;;;;10369996;28;20300;-82
2023/08/20 05:55:51;;;;;;;11.57;9.80;;;;;;;;;;10387062;28;20042;-82
2023/08/20 06:00:51;;;;;;;10.50;9.40;;;;;;;;;;10366035;28;20057;-82
2023/08/20 06:05:52;;;;;;;9.70;8.70;;;;;;;;;;10366482;28;20109;-83
2023/08/20 06:10:52;;;;;;;9.98;9.05;;;;;;;;;;10386989;28;20793;-81
2023/08/20 06:15:53;;;;;;;11.90;9.60;;;;;;;;;;10373448;28;20073;-82
2023/08/20 06:20:53;;;;;;;10.27;9.25;;;;;;;;;;10391232;28;20411;-82
2023/08/20 06:25:54;;;;;;;10.83;8.90;;;;;;;;;;10376332;28;20402;-83
2023/08/20 06:30:54;;;;;;;12.82;9.02;;;;;;;;;;10378709;28;20033;-84
2023/08/20 06:35:55;;;;;;;10.57;9.50;;;;;;;;;;10397420;28;20041;-82
2023/08/20 06:40:56;;;;;;;12.43;10.10;;;;;;;;;;10394315;28;20109;-80
2023/08/20 06:45:56;;;;;;;13.05;11.13;;;;;;;;;;10392638;28;20120;-82
2023/08/20 06:50:57;;;;;;;10.13;9.23;;;;;;;;;;10416312;28;20120;-84
2023/08/20 06:55:57;;;;;;;11.33;10.20;;;;;;;;;;10401900;28;20037;-82
2023/08/20 07:01:06;;;;;;;12.40;10.87;;;;;;;;;;10399552;28;20314;-84
2023/08/20 07:06:11;;;;;;;14.88;12.15;;;;;;;;;;10385019;28;20821;-73
2023/08/20 07:11:11;;;;;;;12.57;10.90;;;;;;;;;;10383307;28;20041;-72
2023/08/20 07:16:12;;;;;;;13.30;12.03;;;;;;;;;;10380343;28;20070;-71
2023/08/20 07:21:12;;;;;;;14.33;11.97;;;;;;;;;;10380090;28;20320;-71
2023/08/20 07:26:12;;;;;;;14.88;13.38;;;;;;;;;;10367808;28;20805;-72
2023/08/20 07:31:13;;;;;;;14.13;12.63;;;;;;;;;;10387883;28;20131;-72
2023/08/20 07:36:14;;;;;;;16.77;12.10;;;;;;;;;;10383649;28;20659;-72
2023/08/20 07:41:15;;;;;;;15.00;13.50;;;;;;;;;;10379521;28;20053;-71
2023/08/20 07:46:15;;;;;;;15.23;13.60;;;;;;;;;;10377602;28;20624;-72
2023/08/20 07:51:15;;;;;;;13.47;12.17;;;;;;;;;;10381595;28;20047;-71
2023/08/20 07:56:16;;;;;;;14.30;12.87;;;;;;;;;;10373881;28;20076;-72
2023/08/20 08:01:16;;;;;;;13.57;12.13;;;;;;;;;;10382986;28;20041;-71
2023/08/20 08:06:18;;;;;;;12.83;11.63;;;;;;;;;;10374055;28;20033;-71
2023/08/20 08:11:18;;;;;;;12.80;11.43;;;;;;;;;;10380206;28;20044;-73
2023/08/20 08:16:18;;;;;;;11.53;10.33;;;;;;;;;;10385086;28;20698;-73
2023/08/20 08:21:19;;;;;;;13.03;11.73;;;;;;;;;;10391708;28;20056;-72
2023/08/20 08:26:19;;;;;;;14.07;12.77;;;;;;;;;;10386419;28;20152;-81
2023/08/20 08:31:19;;;;;;;12.57;11.07;;;;;;;;;;10408864;28;20041;-79
2023/08/20 08:36:20;;;;;;;12.70;11.30;;;;;;;;;;10381873;28;20748;-79
2023/08/20 08:41:25;;;;;;;12.63;11.07;;;;;;;;;;10389026;28;20033;-81
2023/08/20 08:46:25;;;;;;;14.95;12.85;;;;;;;;;;10375993;28;20045;-80
2023/08/20 08:51:28;;;;;;;12.47;11.13;;;;;;;;;;10391564;28;20040;-82
2023/08/20 08:56:29;;;;;;;14.43;12.77;;;;;;;;;;10385632;28;20047;-82
2023/08/20 09:01:29;;;;;;;13.03;11.70;;;;;;;;;;10409156;28;20060;-83
2023/08/20 09:06:43;;;;;;;11.53;10.53;;;;;;;;;;10402102;28;20659;-79
2023/08/20 09:11:44;;;;;;;11.10;10.00;;;;;;;;;;10372764;28;20050;-80
2023/08/20 09:16:44;;;;;;;11.23;9.20;;;;;;;;;;10403534;28;20033;-81
2023/08/20 09:21:48;;;;;;;9.93;9.03;;;;;;;;;;10400440;28;20041;-81
2023/08/20 09:26:48;;;;;;;10.88;9.27;;;;;;;;;;10416264;28;20530;-81
2023/08/20 09:31:49;;;;;;;10.70;9.60;;;;;;;;;;10410347;28;20052;-81
2023/08/20 09:36:51;;;;;;;10.80;9.43;;;;;;;;;;10402509;28;20033;-81
2023/08/20 09:41:53;;;;;;;12.20;9.50;;;;;;;;;;10395461;28;20053;-82
2023/08/20 09:46:53;;;;;;;9.70;8.70;;;;;;;;;;10375976;28;20056;-80
2023/08/20 09:51:55;;;;;;;16.60;13.83;;;;;;;;;;10400182;28;20389;-83
2023/08/20 09:57:00;;;;;;;10.32;9.18;;;;;;;;;;10390809;28;20038;-82
2023/08/20 10:02:01;;;;;;;8.70;7.80;;;;;;;;;;10427657;28;20053;-86
2023/08/20 10:07:03;;;;;;;9.00;8.10;;;;;;;;;;10384051;28;20034;-84
2023/08/20 10:12:03;;;;;;;;;;;;;;;;;;10397751;28;20299;-85
2023/08/20 10:17:07;;;;;;;9.57;8.52;;;;;;;;;;10403061;28;20477;-88
2023/08/20 10:22:08;;;;;;;;;;;;;;;;;;10402854;28;20060;-84
2023/08/20 10:27:10;;;;;;;11.68;10.50;;;;;;;;;;10408709;28;19917;-88
2023/08/20 10:32:18;;;;;;;12.07;8.40;;;;;;;;;;10413017;28;20506;-88
2023/08/20 10:48:54;;;;;;;7.47;6.28;;;;;;;;;;10410812;28;20065;-87
2023/08/20 10:54:00;;;;;;;7.22;6.43;;;;;;;;;;10425355;28;20042;-88
2023/08/20 10:59:05;;;;;;;8.25;7.47;;;;;;;;;;10424445;28;20081;-85
2023/08/20 11:04:07;;;;;;;8.18;7.38;;;;;;;;;;10395226;28;20129;-84
2023/08/20 11:09:10;;;;;;;8.73;6.55;;;;;;;;;;10379699;28;20058;-83
2023/08/20 11:14:15;;;;;;;7.03;6.32;;;;;;;;;;10396252;28;20549;-86
2023/08/20 11:19:19;;;;;;;11.07;7.40;;;;;;;;;;10385439;28;20345;-86
2023/08/20 11:24:45;;;;;;;8.30;7.28;;;;;;;;;;10424532;28;20080;-84
2023/08/20 11:29:47;;;;;;;8.23;7.03;;;;;;;;;;10446322;28;20041;-84
2023/08/20 11:34:50;;;;;;;8.25;7.38;;;;;;;;;;10423481;28;20049;-85
2023/08/20 11:39:50;;;;;;;7.97;7.03;;;;;;;;;;10447971;28;20728;-87
2023/08/20 11:44:55;;;;;;;7.73;7.03;;;;;;;;;;10450384;28;20151;-87
2023/08/20 11:50:04;;;;;;;8.02;6.97;;;;;;;;;;10433340;28;20080;-85
2023/08/20 11:55:06;;;;;;;7.50;6.50;;;;;;;;;;10462948;28;20108;-86
2023/08/20 12:00:23;;;;;;;7.05;6.30;;;;;;;;;;10405501;28;20068;-87
2023/08/20 12:05:27;;;;;;;8.20;7.00;;;;;;;;;;10451451;28;20501;-86
2023/08/20 12:10:32;;;;;;;8.15;6.82;;;;;;;;;;10441199;28;20053;-85
2023/08/20 12:15:34;;;;;;;8.35;6.53;;;;;;;;;;10453920;28;20105;-87
2023/08/20 12:20:40;;;;;;;7.80;6.55;;;;;;;;;;10452362;28;20482;-86
2023/08/20 12:25:51;;;;;;;7.53;6.82;;;;;;;;;;10434623;28;20049;-87
2023/08/20 12:30:53;;;;;;;8.40;6.95;;;;;;;;;;10445818;28;20049;-85
2023/08/20 12:35:59;;;;;;;10.05;7.07;;;;;;;;;;10458065;28;20049;-83
2023/08/20 12:41:05;;;;;;;7.95;6.53;;;;;;;;;;10422946;28;20065;-80
2023/08/20 12:46:05;;;;;;;7.93;6.53;;;;;;;;;;10449192;28;20055;-83
2023/08/20 12:51:08;;;;;;;10.02;8.25;;;;;;;;;;10439801;28;20045;-86
2023/08/20 12:56:08;;;;;;;6.63;6.03;;;;;;;;;;10396833;28;20065;-84
2023/08/20 13:01:09;;;;;;;7.70;6.90;;;;;;;;;;10436198;28;20203;-79
2023/08/20 13:06:10;;;;;;;7.90;7.03;;;;;;;;;;10435943;28;20064;-81
2023/08/20 13:11:14;;;;;;;6.78;6.18;;;;;;;;;;10434945;28;20079;-79
2023/08/20 13:16:18;;;;;;;7.80;7.00;;;;;;;;;;10440533;28;20466;-81
2023/08/20 13:21:30;;;;;;;7.18;6.47;;;;;;;;;;10431177;28;20061;-80
2023/08/20 13:26:31;;;;;;;9.65;6.45;;;;;;;;;;10435176;28;21073;-79
2023/08/20 13:31:31;;;;;;;7.72;6.88;;;;;;;;;;10433186;28;20076;-80
2023/08/20 13:36:31;;;;;;;7.67;6.57;;;;;;;;;;10435777;28;20098;-80
2023/08/20 13:41:32;;;;;;;8.43;6.13;;;;;;;;;;10429051;28;20091;-79
2023/08/20 13:46:32;;;;;;;8.57;7.30;;;;;;;;;;10427052;28;20040;-79
2023/08/20 13:51:33;;;;;;;8.17;6.20;;;;;;;;;;10427951;28;20045;-79
2023/08/20 13:56:33;;;;;;;8.77;6.70;;;;;;;;;;10410048;28;20781;-79
2023/08/20 14:01:37;;;;;;;8.23;6.15;;;;;;;;;;10426360;28;20159;-84
2023/08/20 14:06:37;;;;;;;7.32;6.20;;;;;;;;;;10437481;28;20060;-85
2023/08/20 14:11:38;;;;;;;9.20;5.77;;;;;;;;;;10439240;28;20048;-82
2023/08/20 14:16:39;;;;;;;6.22;5.63;;;;;;;;;;10418160;28;20287;-82
2023/08/20 14:21:40;;;;;;;8.53;5.77;;;;;;;;;;10438402;28;20423;-82
2023/08/20 14:26:43;;;;;;;7.22;5.65;;;;;;;;;;10417040;28;20494;-82
2023/08/20 14:31:45;;;;;;;7.93;5.80;;;;;;;;;;10432344;28;20049;-79
2023/08/20 14:36:45;;;;;;;8.23;5.10;;;;;;;;;;10456332;28;20064;-82
2023/08/20 14:41:45;;;;;;;6.50;5.00;;;;;;;;;;10457193;28;20045;-80
2023/08/20 14:46:46;;;;;;;6.00;4.67;;;;;;;;;;10476462;28;20029;-80
2023/08/20 14:51:48;;;;;;;7.15;5.32;;;;;;;;;;10472377;28;20061;-83
2023/08/20 14:56:52;;;;;;;6.32;4.40;;;;;;;;;;10447186;28;20790;-81
2023/08/20 15:01:52;;;;;;;6.93;4.55;;;;;;;;;;10425919;28;20049;-82
2023/08/20 15:06:53;;;;;;;5.03;4.60;;;;;;;;;;10431608;28;20046;-84
2023/08/20 15:11:54;;;;;;;6.20;4.40;;;;;;;;;;10438684;28;20178;-82
2023/08/20 15:16:55;;;;;;;7.63;4.95;;;;;;;;;;10445339;28;20056;-81
2023/08/20 15:22:13;;;;;;;7.20;5.78;;;;;;;;;;10443803;28;20049;-82
2023/08/20 15:27:13;;;;;;;8.35;5.80;;;;;;;;;;10449583;28;20043;-86
2023/08/20 15:32:14;;;;;;;6.23;5.10;;;;;;;;;;10440847;28;20080;-82
2023/08/20 15:37:21;;;;;;;5.00;4.50;;;;;;;;;;10452900;28;20052;-81
2023/08/20 15:42:24;;;;;;;5.90;5.10;;;;;;;;;;10440964;28;20147;-82
2023/08/20 15:47:25;;;;;;;6.75;5.40;;;;;;;;;;10419986;28;20065;-81
2023/08/20 15:52:25;;;;;;;6.83;5.13;;;;;;;;;;10445823;28;20296;-81
2023/08/20 15:57:25;;;;;;;5.73;5.10;;;;;;;;;;10445618;28;21474;-82
2023/08/20 16:02:27;;;;;;;6.83;5.00;;;;;;;;;;10456034;28;20156;-83
2023/08/20 16:07:30;;;;;;;7.28;6.00;;;;;;;;;;10442548;28;20105;-84
2023/08/20 16:12:30;;;;;;;6.57;5.97;;;;;;;;;;10421982;28;20124;-81
2023/08/20 16:17:55;;;;;;;6.32;5.70;;;;;;;;;;10451604;28;20052;-87
2023/08/20 16:22:57;;;;;;;7.13;6.07;;;;;;;;;;10430369;28;20040;-82
2023/08/20 16:27:59;;;;;;;7.40;5.65;;;;;;;;;;10465415;28;20073;-83
2023/08/20 16:33:00;;;;;;;8.15;6.55;;;;;;;;;;10483612;28;20045;-85
2023/08/20 16:38:02;;;;;;;;;;;;;;;;;;10469024;28;20045;-87
2023/08/20 16:43:03;;;;;;;8.43;6.47;;;;;;;;;;10441610;28;20286;-82
2023/08/20 16:48:07;;;;;;;8.20;7.15;;;;;;;;;;10410836;28;20088;-80
2023/08/20 16:53:11;;;;;;;9.77;6.72;;;;;;;;;;10411800;28;20052;-86
2023/08/20 16:58:12;;;;;;;7.47;6.10;;;;;;;;;;10425443;28;20101;-86
2023/08/20 17:03:16;;;;;;;6.72;6.13;;;;;;;;;;10411419;28;20049;-82
2023/08/20 17:08:18;;;;;;;;;;;;;;;;;;10417014;28;20044;-83
2023/08/20 17:13:21;;;;;;;6.78;6.13;;;;;;;;;;10437260;28;19932;-83
2023/08/20 17:18:22;;;;;;;10.38;6.50;;;;;;;;;;10472678;28;20040;-81
2023/08/20 17:23:22;;;;;;;;;;;;;;;;;;10422006;28;20044;-77
2023/08/20 17:28:22;;;;;;;6.63;6.00;;;;;;;;;;10434650;28;19948;-81
2023/08/20 17:33:23;;;;;;;6.77;6.17;;;;;;;;;;10421650;28;20076;-80
2023/08/20 17:38:23;;;;;;;;;;;;;;;;;;10429465;28;20047;-79
2023/08/20 17:43:23;;;;;;;7.80;6.20;;;;;;;;;;10448417;28;19916;-79
2023/08/20 17:48:24;;;;;;;8.07;6.27;;;;;;;;;;10445090;28;20048;-78
2023/08/20 17:53:28;;;;;;;7.33;6.57;;;;;;;;;;10411847;28;20055;-78
2023/08/20 17:58:28;;;;;;;9.63;6.60;;;;;;;;;;10414427;28;20603;-81
2023/08/20 18:03:28;;;;;;;8.87;6.40;;;;;;;;;;10436342;28;20041;-83
2023/08/20 18:08:29;;;;;;;7.75;6.95;;;;;;;;;;10436559;28;20057;-82
2023/08/20 18:13:29;;;;;;;7.75;6.95;;;;;;;;;;10437637;28;20053;-83
2023/08/20 18:18:32;;;;;;;8.73;7.83;;;;;;;;;;10410885;28;20049;-80
2023/08/20 18:23:33;;;;;;;9.45;7.20;;;;;;;;;;10439785;28;20510;-85
2023/08/20 18:28:33;;;;;;;8.85;7.95;;;;;;;;;;10424965;28;20111;-77
2023/08/20 18:33:34;;;;;;;8.60;7.43;;;;;;;;;;10421639;28;21363;-80
2023/08/20 18:38:39;;;;;;;8.50;7.05;;;;;;;;;;10428888;28;20164;-79
2023/08/20 18:43:39;;;;;;;8.15;7.35;;;;;;;;;;10424569;28;20048;-80
2023/08/20 18:48:40;;;;;;;8.43;6.93;;;;;;;;;;10407325;28;20056;-79
2023/08/20 18:53:40;;;;;;;9.47;7.57;;;;;;;;;;10413227;28;20040;-79
2023/08/20 18:58:41;;;;;;;9.00;7.30;;;;;;;;;;10420815;28;20040;-82
2023/08/20 19:03:41;;;;;;;9.03;8.07;;;;;;;;;;10414730;28;20048;-80
2023/08/20 19:08:42;;;;;;;11.13;8.02;;;;;;;;;;10434211;28;20091;-81
2023/08/20 19:13:42;;;;;;;10.63;8.47;;;;;;;;;;10425017;28;20080;-83
2023/08/20 19:18:42;;;;;;;9.60;8.27;;;;;;;;;;10430543;28;20045;-81
2023/08/20 19:23:45;;;;;;;8.30;7.50;;;;;;;;;;10422832;28;20044;-80
2023/08/20 19:28:45;;;;;;;11.77;9.38;;;;;;;;;;10403439;28;20047;-80
2023/08/20 19:33:47;;;;;;;10.43;9.33;;;;;;;;;;10427765;28;20762;-79
2023/08/20 19:38:47;;;;;;;10.98;9.88;;;;;;;;;;10425563;28;20049;-81
2023/08/20 19:43:47;;;;;;;10.43;9.37;;;;;;;;;;10433026;28;20045;-82
2023/08/20 19:48:48;;;;;;;43.37;39.00;;;;;;;;;;10415844;28;20049;-79
2023/08/20 19:53:48;;;;;;;13.17;11.87;;;;;;;;;;10435620;28;20084;-82
2023/08/20 19:58:48;;;;;;;11.63;10.13;;;;;;;;;;10405569;28;20120;-83
2023/08/20 20:03:49;;;;;;;11.27;9.33;;;;;;;;;;10425293;28;20056;-82
2023/08/20 20:08:49;;;;;;;13.63;11.50;;;;;;;;;;10437512;28;20068;-84
2023/08/20 20:13:51;;;;;;;;;;;;;;;;;;10409723;28;20101;-80
2023/08/20 20:18:53;;;;;;;13.07;10.43;;;;;;;;;;10425132;28;19978;-85
2023/08/20 20:24:16;;;;;;;12.00;10.80;;;;;;;;;;10431777;28;20055;-84
2023/08/20 20:29:18;;;;;;;13.10;11.68;;;;;;;;;;10457169;28;20045;-81
2023/08/20 20:34:43;;;;;;;12.32;10.75;;;;;;;;;;10443837;28;20473;-80
2023/08/20 20:39:43;;;;;;;11.00;9.93;;;;;;;;;;10428185;28;20071;-81
2023/08/20 20:44:44;;;;;;;12.53;10.93;;;;;;;;;;10419468;28;20037;-79
2023/08/20 20:49:44;;;;;;;13.03;9.90;;;;;;;;;;10423347;28;20088;-79
2023/08/20 20:54:46;;;;;;;15.27;10.13;;;;;;;;;;10418275;28;20491;-79
2023/08/20 20:59:46;;;;;;;;;;;;;;;;;;10437678;28;20045;-78
2023/08/20 21:04:47;;;;;;;10.77;9.75;;;;;;;;;;10434518;28;19913;-81
2023/08/20 21:09:47;;;;;;;11.43;10.33;;;;;;;;;;10451575;28;20052;-80
2023/08/20 21:14:49;;;;;;;11.53;10.40;;;;;;;;;;10420112;28;20075;-80
2023/08/20 21:19:50;;;;;;;11.27;10.07;;;;;;;;;;10415872;28;20519;-81
2023/08/20 21:24:51;;;;;;;13.15;10.27;;;;;;;;;;10414233;28;20063;-80
2023/08/20 21:29:55;;;;;;;11.90;10.70;;;;;;;;;;10434464;28;20056;-81
2023/08/20 21:34:58;;;;;;;12.32;10.70;;;;;;;;;;10417255;28;20053;-82
2023/08/20 21:39:58;;;;;;;11.68;10.65;;;;;;;;;;10428048;28;20049;-82
2023/08/20 21:44:59;;;;;;;11.27;10.17;;;;;;;;;;10425821;28;20877;-80
2023/08/20 21:49:59;;;;;;;11.90;10.67;;;;;;;;;;10399050;28;20643;-81
2023/08/20 21:55:00;;;;;;;12.17;11.00;;;;;;;;;;10420904;28;20068;-81
2023/08/20 22:00:02;;;;;;;13.63;11.27;;;;;;;;;;10425785;28;20059;-82
2023/08/20 22:05:15;;;;;;;12.00;10.75;;;;;;;;;;10432440;28;20056;-81
2023/08/20 22:10:18;;;;;;;11.93;10.35;;;;;;;;;;10420177;28;20060;-82
2023/08/20 22:15:19;;;;;;;12.65;11.13;;;;;;;;;;10434882;28;20814;-82
2023/08/20 22:20:19;;;;;;;12.20;10.23;;;;;;;;;;10412174;28;20053;-83
2023/08/20 22:25:20;;;;;;;12.57;11.37;;;;;;;;;;10430168;28;20045;-80
2023/08/20 22:30:21;;;;;;;12.57;11.27;;;;;;;;;;10446530;28;20080;-78
2023/08/20 22:35:22;;;;;;;13.63;10.93;;;;;;;;;;10426538;28;20139;-82
2023/08/20 22:40:22;;;;;;;12.80;11.43;;;;;;;;;;10414402;28;20053;-81
2023/08/20 22:45:29;;;;;;;12.75;10.70;;;;;;;;;;10426087;28;20053;-81
2023/08/20 22:50:30;;;;;;;12.63;11.07;;;;;;;;;;10433513;28;20057;-80
2023/08/20 22:55:30;;;;;;;13.23;10.87;;;;;;;;;;10432201;28;20048;-79
2023/08/20 23:00:31;;;;;;;13.53;10.27;;;;;;;;;;10413146;28;20079;-80
2023/08/20 23:05:31;;;;;;;13.40;10.70;;;;;;;;;;10406871;28;20049;-81
2023/08/20 23:10:31;;;;;;;12.50;11.27;;;;;;;;;;10431368;28;21009;-80
2023/08/20 23:15:32;;;;;;;12.57;10.60;;;;;;;;;;10425779;28;20049;-80
2023/08/20 23:20:33;;;;;;;11.95;10.75;;;;;;;;;;10426646;28;20055;-81
2023/08/20 23:25:36;;;;;;;14.63;11.40;;;;;;;;;;10430447;28;20598;-82
2023/08/20 23:30:40;;;;;;;14.83;12.37;;;;;;;;;;10419533;28;20053;-81
2023/08/20 23:35:41;;;;;;;15.18;12.85;;;;;;;;;;10406322;28;20041;-84
2023/08/20 23:40:41;;;;;;;13.30;12.10;;;;;;;;;;10408957;28;20041;-85
2023/08/20 23:45:42;;;;;;;13.80;11.23;;;;;;;;;;10422312;28;20040;-83
2023/08/20 23:50:42;;;;;;;15.67;12.03;;;;;;;;;;10410628;28;20060;-82
2023/08/20 23:55:43;;;;;;;12.43;11.23;;;;;;;;;;10438548;28;20045;-84
